createdAt,value
2023-02-17T00:01:34.464Z,30.00
2023-02-17T00:04:03.358Z,29.77
2023-02-17T00:06:32.918Z,30.02
2023-02-17T00:09:01.993Z,28.25
2023-02-17T00:11:30.715Z,27.33
2023-02-17T00:14:00.853Z,27.90
2023-02-17T00:16:30.227Z,26.40
2023-02-17T00:19:01.216Z,26.02
2023-02-17T00:21:32.623Z,26.45
2023-02-17T00:24:02.456Z,26.45
2023-02-17T00:26:31.148Z,26.98
2023-02-17T00:29:01.047Z,26.25
2023-02-17T00:31:29.720Z,27.15
2023-02-17T00:33:58.786Z,26.90
2023-02-17T00:36:28.609Z,27.80
2023-02-17T00:38:58.858Z,27.33
2023-02-17T00:41:28.818Z,28.35
2023-02-17T00:43:57.528Z,28.17
2023-02-17T00:46:28.116Z,29.23
2023-02-17T00:48:56.577Z,31.42
2023-02-17T00:51:26.158Z,30.02
2023-02-17T00:53:54.598Z,29.60
2023-02-17T00:56:23.233Z,29.95
2023-02-17T00:58:51.527Z,30.50
2023-02-17T01:01:20.211Z,31.73
2023-02-17T01:03:50.141Z,31.38
2023-02-17T01:06:25.757Z,32.67
2023-02-17T01:08:54.857Z,32.20
2023-02-17T01:11:25.932Z,33.95
2023-02-17T01:13:54.594Z,36.20
2023-02-17T01:16:26.972Z,36.92
2023-02-17T01:18:57.708Z,37.83
2023-02-17T01:21:29.553Z,39.08
2023-02-17T01:24:01.028Z,39.95
2023-02-17T01:26:32.376Z,43.00
2023-02-17T01:29:01.420Z,39.92
2023-02-17T01:31:30.841Z,42.63
2023-02-17T01:34:04.439Z,42.97
2023-02-17T01:36:33.546Z,42.80
2023-02-17T01:39:02.064Z,41.85
2023-02-17T01:41:31.127Z,41.47
2023-02-17T01:44:21.896Z,40.75
2023-02-17T01:46:52.705Z,39.75
2023-02-17T01:49:34.217Z,38.33
2023-02-17T01:52:10.867Z,37.08
2023-02-17T01:54:45.800Z,38.70
2023-02-17T01:57:20.395Z,37.63
2023-02-17T01:59:49.994Z,37.45
2023-02-17T02:02:19.671Z,36.63
2023-02-17T02:04:55.219Z,34.22
2023-02-17T02:07:33.121Z,34.92
2023-02-17T02:10:02.184Z,35.47
2023-02-17T02:12:34.887Z,35.80
2023-02-17T02:15:08.415Z,34.78
2023-02-17T02:17:47.118Z,34.05
2023-02-17T02:20:57.972Z,33.97
2023-02-17T02:24:11.084Z,34.03
2023-02-17T02:27:29.602Z,32.40
2023-02-17T02:30:26.112Z,31.17
2023-02-17T02:33:11.803Z,30.05
2023-02-17T02:35:58.617Z,30.52
2023-02-17T02:38:33.874Z,30.02
2023-02-17T02:43:43.028Z,30.75
2023-02-17T02:46:12.628Z,30.33
2023-02-17T02:48:46.721Z,30.90
2023-02-17T02:51:37.834Z,30.60
2023-02-17T02:54:23.359Z,31.05
2023-02-17T02:57:14.381Z,29.92
2023-02-17T02:59:54.382Z,30.88
2023-02-17T03:02:33.091Z,32.42
2023-02-17T03:05:13.778Z,32.55
2023-02-17T03:07:48.955Z,31.33
2023-02-17T03:10:18.626Z,29.90
2023-02-17T03:12:48.499Z,30.23
2023-02-17T03:15:24.770Z,28.98
2023-02-17T03:17:54.559Z,29.33
2023-02-17T03:20:24.882Z,28.42
2023-02-17T03:22:53.981Z,28.65
2023-02-17T03:25:22.919Z,30.42
2023-02-17T03:27:53.007Z,28.42
2023-02-17T03:30:22.718Z,27.83
2023-02-17T03:32:53.897Z,27.33
2023-02-17T03:35:24.416Z,25.65
2023-02-17T03:37:53.687Z,25.08
2023-02-17T03:40:22.715Z,25.02
2023-02-17T03:42:51.952Z,24.92
2023-02-17T03:45:21.043Z,25.13
2023-02-17T03:47:49.863Z,25.13
2023-02-17T03:50:19.124Z,23.95
2023-02-17T03:52:49.861Z,24.45
2023-02-17T03:55:18.561Z,23.88
2023-02-17T03:57:47.708Z,25.10
2023-02-17T04:00:17.885Z,25.00
2023-02-17T04:02:47.461Z,25.52
2023-02-17T04:05:16.861Z,25.05
2023-02-17T04:07:46.554Z,25.15
2023-02-17T04:10:22.752Z,26.00
2023-02-17T04:12:51.840Z,25.80
2023-02-17T04:15:20.605Z,26.42
2023-02-17T04:17:49.201Z,25.58
2023-02-17T04:20:17.996Z,26.23
2023-02-17T04:22:49.956Z,26.10
2023-02-17T04:25:20.937Z,26.65
2023-02-17T04:27:49.564Z,27.58
2023-02-17T04:30:19.503Z,27.33
2023-02-17T04:32:48.528Z,27.92
2023-02-17T04:35:17.498Z,28.23
2023-02-17T04:37:46.007Z,27.08
2023-02-17T04:40:15.685Z,30.00
2023-02-17T04:42:47.267Z,28.35
2023-02-17T04:45:18.688Z,29.60
2023-02-17T04:47:47.475Z,29.13
2023-02-17T04:50:16.523Z,30.60
2023-02-17T04:52:45.289Z,30.58
2023-02-17T04:55:13.832Z,29.80
2023-02-17T04:57:43.213Z,30.02
2023-02-17T05:00:17.616Z,30.85
2023-02-17T05:02:46.929Z,30.92
2023-02-17T05:05:19.818Z,31.05
2023-02-17T05:07:49.918Z,31.02
2023-02-17T05:10:21.325Z,31.50
2023-02-17T05:12:51.512Z,30.38
2023-02-17T05:15:23.652Z,32.38
2023-02-17T05:17:52.582Z,30.05
2023-02-17T05:20:22.376Z,30.95
2023-02-17T05:22:51.139Z,31.17
2023-02-17T05:25:20.057Z,29.95
2023-02-17T05:27:48.683Z,32.38
2023-02-17T05:30:18.747Z,31.63
2023-02-17T05:32:49.983Z,33.33
2023-02-17T05:35:19.316Z,32.17
2023-02-17T05:37:48.099Z,33.22
2023-02-17T05:40:16.975Z,34.80
2023-02-17T05:42:46.634Z,36.60
2023-02-17T05:45:15.413Z,33.72
2023-02-17T05:47:44.019Z,34.97
2023-02-17T05:50:14.606Z,34.75
2023-02-17T05:52:43.505Z,32.30
2023-02-17T05:55:12.604Z,32.03
2023-02-17T05:57:41.334Z,31.80
2023-02-17T06:00:12.111Z,30.23
2023-02-17T06:02:41.239Z,28.92
2023-02-17T06:05:12.276Z,29.15
2023-02-17T06:07:42.862Z,29.05
2023-02-17T06:10:12.825Z,30.00
2023-02-17T06:12:42.009Z,28.63
2023-02-17T06:15:11.000Z,30.52
2023-02-17T06:17:40.040Z,30.58
2023-02-17T06:20:11.439Z,30.27
2023-02-17T06:22:42.378Z,30.42
2023-02-17T06:25:11.511Z,29.58
2023-02-17T06:27:40.216Z,30.67
2023-02-17T06:30:10.312Z,29.42
2023-02-17T06:32:39.268Z,29.63
2023-02-17T06:35:10.366Z,29.40
2023-02-17T06:37:39.554Z,29.67
2023-02-17T06:40:13.209Z,29.98
2023-02-17T06:42:42.525Z,29.92
2023-02-17T06:45:11.326Z,31.60
2023-02-17T06:47:39.925Z,29.73
2023-02-17T06:50:10.506Z,29.58
2023-02-17T06:52:39.417Z,32.33
2023-02-17T06:55:10.392Z,34.25
2023-02-17T06:57:39.739Z,33.20
2023-02-17T07:00:09.985Z,32.75
2023-02-17T07:02:41.202Z,32.30
2023-02-17T07:05:10.513Z,32.63
2023-02-17T07:07:39.207Z,35.58
2023-02-17T07:10:10.986Z,31.63
2023-02-17T07:12:39.661Z,30.67
2023-02-17T07:15:12.036Z,30.95
2023-02-17T07:17:41.427Z,30.60
2023-02-17T07:20:11.548Z,30.13
2023-02-17T07:22:40.490Z,28.80
2023-02-17T07:25:10.972Z,26.70
2023-02-17T07:27:40.084Z,26.35
2023-02-17T07:30:10.431Z,27.40
2023-02-17T07:32:39.037Z,24.88
2023-02-17T07:35:08.524Z,25.33
2023-02-17T07:37:37.727Z,22.77
2023-02-17T07:40:09.846Z,23.30
2023-02-17T07:42:38.656Z,23.20
2023-02-17T07:45:08.464Z,23.38
2023-02-17T07:47:37.428Z,21.88
2023-02-17T07:50:07.559Z,21.98
2023-02-17T07:52:36.453Z,21.95
2023-02-17T07:55:06.066Z,20.63
2023-02-17T07:57:36.524Z,20.85
2023-02-17T08:00:09.293Z,21.75
2023-02-17T08:02:39.901Z,20.10
2023-02-17T08:05:09.113Z,20.92
2023-02-17T08:07:38.142Z,19.55
2023-02-17T08:10:30.114Z,20.52
2023-02-17T08:13:17.875Z,18.98
2023-02-17T08:15:46.954Z,18.02
2023-02-17T08:18:15.747Z,17.77
2023-02-17T08:20:44.861Z,18.92
2023-02-17T08:23:13.617Z,19.38
2023-02-17T08:25:42.302Z,19.88
2023-02-17T08:28:15.183Z,18.13
2023-02-17T08:30:43.871Z,17.77
2023-02-17T08:33:17.913Z,17.25
2023-02-17T08:35:46.975Z,17.73
2023-02-17T08:38:15.826Z,17.55
2023-02-17T08:40:45.883Z,18.30
2023-02-17T08:43:16.193Z,17.73
2023-02-17T08:45:45.227Z,17.20
2023-02-17T08:48:14.038Z,16.50
2023-02-17T08:50:42.675Z,16.83
2023-02-17T08:53:11.434Z,16.35
2023-02-17T08:55:48.816Z,16.05
2023-02-17T08:58:19.812Z,15.05
2023-02-17T09:00:48.716Z,15.98
2023-02-17T09:03:17.908Z,14.75
2023-02-17T09:05:50.507Z,12.85
2023-02-17T09:08:19.383Z,13.35
2023-02-17T09:10:49.624Z,12.32
2023-02-17T09:13:22.434Z,11.05
2023-02-17T09:15:54.063Z,10.82
2023-02-17T09:18:23.243Z,10.75
2023-02-17T09:20:52.306Z,12.07
2023-02-17T09:23:21.329Z,10.90
2023-02-17T09:25:49.948Z,10.93
2023-02-17T09:28:20.061Z,10.93
2023-02-17T09:30:48.766Z,10.80
2023-02-17T09:33:17.282Z,10.90
2023-02-17T09:35:45.864Z,10.48
2023-02-17T09:38:14.635Z,9.95
2023-02-17T09:40:47.494Z,10.25
2023-02-17T09:43:20.769Z,9.65
2023-02-17T09:45:56.181Z,9.82
2023-02-17T09:51:01.506Z,10.35
2023-02-17T09:53:37.053Z,10.57
2023-02-17T09:56:11.424Z,9.85
2023-02-17T09:58:48.681Z,10.77
2023-02-17T10:01:22.617Z,10.10
2023-02-17T10:03:57.663Z,10.55
2023-02-17T10:06:30.764Z,10.38
2023-02-17T10:09:11.305Z,9.38
2023-02-17T10:11:47.657Z,10.90
2023-02-17T10:14:24.798Z,10.13
2023-02-17T10:17:01.498Z,10.32
2023-02-17T10:19:33.881Z,9.77
2023-02-17T10:22:12.879Z,9.88
2023-02-17T10:24:41.865Z,10.77
2023-02-17T10:27:29.831Z,9.68
2023-02-17T10:30:25.299Z,9.20
2023-02-17T10:33:03.440Z,9.38
2023-02-17T10:35:51.354Z,9.10
2023-02-17T10:38:35.791Z,9.70
2023-02-17T10:41:12.016Z,8.60
2023-02-17T10:43:45.663Z,8.90
2023-02-17T10:46:20.488Z,8.57
2023-02-17T10:48:52.702Z,7.83
2023-02-17T10:51:30.045Z,7.93
2023-02-17T10:54:05.193Z,7.97
2023-02-17T10:56:41.517Z,7.60
2023-02-17T10:59:23.264Z,7.18
2023-02-17T11:01:53.263Z,7.07
2023-02-17T11:04:22.256Z,7.13
2023-02-17T11:06:53.847Z,6.15
2023-02-17T11:09:28.951Z,6.35
2023-02-17T11:12:03.558Z,5.85
2023-02-17T11:14:35.012Z,6.07
2023-02-17T11:17:15.847Z,5.07
2023-02-17T11:19:54.687Z,4.55
2023-02-17T11:22:37.090Z,4.10
2023-02-17T11:25:10.169Z,4.00
2023-02-17T11:27:39.629Z,3.80
2023-02-17T11:30:18.451Z,4.00
2023-02-17T11:32:51.537Z,4.22
2023-02-17T11:35:29.894Z,3.92
2023-02-17T11:38:04.079Z,3.95
2023-02-17T11:40:34.647Z,4.47
2023-02-17T11:43:08.301Z,4.88
2023-02-17T11:45:50.046Z,4.68
2023-02-17T11:49:00.257Z,4.75
2023-02-17T11:51:45.593Z,5.05
2023-02-17T11:54:26.009Z,4.90
2023-02-17T11:57:16.568Z,4.50
2023-02-17T12:00:07.716Z,3.78
2023-02-17T12:02:55.548Z,4.65
2023-02-17T12:05:34.576Z,4.72
2023-02-17T12:08:19.928Z,5.38
2023-02-17T12:11:07.541Z,5.20
2023-02-17T12:13:52.433Z,5.50
2023-02-17T12:16:39.451Z,5.17
2023-02-17T12:19:37.749Z,4.50
2023-02-17T12:22:19.840Z,4.32
2023-02-17T12:25:23.900Z,5.55
2023-02-17T12:28:12.550Z,5.00
2023-02-17T12:31:01.308Z,4.50
2023-02-17T12:36:26.938Z,5.10
2023-02-17T12:39:03.453Z,5.07
2023-02-17T12:41:37.906Z,4.75
2023-02-17T12:44:14.368Z,5.03
2023-02-17T12:46:47.358Z,5.50
2023-02-17T12:49:22.742Z,4.43
2023-02-17T12:54:34.352Z,4.65
2023-02-17T12:57:20.150Z,3.75
2023-02-17T13:02:22.451Z,4.20
2023-02-17T13:04:54.698Z,4.60
2023-02-17T13:07:44.457Z,4.13
2023-02-17T13:10:37.644Z,3.55
2023-02-17T13:13:11.485Z,4.20
2023-02-17T13:15:43.607Z,3.92
2023-02-17T13:18:29.183Z,4.32
2023-02-17T13:21:01.894Z,4.22
2023-02-17T13:23:42.932Z,4.63
2023-02-17T13:26:30.508Z,4.93
2023-02-17T13:29:35.791Z,4.32
2023-02-17T13:32:08.993Z,3.72
2023-02-17T13:34:42.545Z,4.55
2023-02-17T13:37:26.724Z,4.45
2023-02-17T13:39:55.644Z,3.67
2023-02-17T13:42:41.679Z,3.95
2023-02-17T13:45:22.669Z,4.20
2023-02-17T13:47:54.068Z,4.00
2023-02-17T13:50:34.474Z,4.13
2023-02-17T13:53:07.619Z,4.20
2023-02-17T13:55:36.602Z,4.80
2023-02-17T13:58:09.288Z,4.20
2023-02-17T14:00:40.353Z,4.40
2023-02-17T14:03:21.567Z,3.85
2023-02-17T14:05:52.679Z,4.28
2023-02-17T14:08:34.406Z,4.00
2023-02-17T14:11:11.592Z,4.55
2023-02-17T14:13:45.853Z,4.28
2023-02-17T14:16:32.648Z,4.25
2023-02-17T14:19:11.003Z,4.05
2023-02-17T14:21:42.523Z,4.38
2023-02-17T14:24:28.547Z,4.20
2023-02-17T14:27:03.837Z,4.20
2023-02-17T14:29:47.390Z,3.85
2023-02-17T14:32:34.223Z,4.80
2023-02-17T14:35:26.263Z,5.30
2023-02-17T14:37:55.640Z,4.15
2023-02-17T14:40:27.636Z,4.90
2023-02-17T14:42:56.785Z,4.40
2023-02-17T14:45:28.279Z,5.05
2023-02-17T14:48:00.032Z,4.60
2023-02-17T14:50:28.862Z,4.32
2023-02-17T14:52:57.898Z,4.88
2023-02-17T14:55:39.818Z,3.78
2023-02-17T14:58:12.667Z,4.72
2023-02-17T15:00:43.249Z,4.05
2023-02-17T15:03:12.212Z,4.00
2023-02-17T15:05:43.121Z,4.53
2023-02-17T15:08:18.622Z,4.70
2023-02-17T15:10:47.916Z,3.65
2023-02-17T15:13:21.460Z,4.40
2023-02-17T15:15:52.164Z,4.15
2023-02-17T15:18:24.709Z,4.75
2023-02-17T15:20:54.873Z,4.38
2023-02-17T15:23:25.800Z,4.43
2023-02-17T15:25:56.144Z,4.50
2023-02-17T15:28:26.297Z,5.85
2023-02-17T15:30:59.906Z,4.57
2023-02-17T15:33:29.604Z,4.65
2023-02-17T15:36:00.494Z,4.35
2023-02-17T15:38:29.240Z,4.32
2023-02-17T15:40:58.841Z,4.28
2023-02-17T15:46:17.476Z,4.07
2023-02-17T15:48:49.996Z,4.57
2023-02-17T15:51:20.735Z,4.55
2023-02-17T15:53:50.248Z,4.45
2023-02-17T15:56:23.335Z,4.55
2023-02-17T15:58:56.616Z,4.72
2023-02-17T16:01:31.067Z,4.43
2023-02-17T16:04:00.555Z,4.03
2023-02-17T16:06:30.404Z,4.70
2023-02-17T16:09:05.701Z,4.60
2023-02-17T16:11:35.537Z,4.15
2023-02-17T16:14:04.413Z,4.85
2023-02-17T16:16:36.256Z,4.45
2023-02-17T16:19:05.069Z,4.30
2023-02-17T16:21:34.049Z,4.53
2023-02-17T16:24:08.927Z,4.30
2023-02-17T16:26:40.020Z,4.00
2023-02-17T16:29:19.711Z,3.92
2023-02-17T16:31:50.732Z,3.88
2023-02-17T16:34:22.485Z,4.15
2023-02-17T16:36:54.035Z,4.45
2023-02-17T16:39:24.870Z,4.07
2023-02-17T16:41:56.312Z,4.10
2023-02-17T16:44:25.662Z,4.60
2023-02-17T16:46:59.828Z,4.10
2023-02-17T16:49:33.691Z,4.15
2023-02-17T16:52:08.815Z,3.20
2023-02-17T16:54:37.853Z,4.00
2023-02-17T16:57:07.460Z,4.82
2023-02-17T16:59:36.381Z,3.92
2023-02-17T17:02:07.749Z,5.20
2023-02-17T17:04:36.574Z,4.85
2023-02-17T17:07:05.825Z,5.10
2023-02-17T17:09:35.010Z,5.28
2023-02-17T17:12:06.686Z,5.15
2023-02-17T17:14:36.891Z,5.55
2023-02-17T17:17:07.967Z,5.45
2023-02-17T17:19:37.513Z,5.00
2023-02-17T17:22:06.541Z,4.53
2023-02-17T17:24:35.377Z,5.72
2023-02-17T17:27:06.778Z,5.63
2023-02-17T17:29:35.700Z,5.25
2023-02-17T17:32:07.687Z,5.28
2023-02-17T17:34:36.534Z,4.82
2023-02-17T17:37:05.399Z,5.32
2023-02-17T17:39:52.742Z,6.20
2023-02-17T17:42:21.721Z,5.47
2023-02-17T17:44:52.183Z,4.78
2023-02-17T17:47:29.712Z,5.50
2023-02-17T17:49:59.530Z,5.63
2023-02-17T17:52:29.497Z,6.80
2023-02-17T17:54:58.580Z,5.53
2023-02-17T17:57:27.495Z,5.88
2023-02-17T17:59:56.138Z,5.45
2023-02-17T18:02:26.680Z,5.65
2023-02-17T18:04:56.245Z,6.32
2023-02-17T18:07:25.072Z,5.35
2023-02-17T18:09:54.213Z,5.68
2023-02-17T18:12:25.757Z,6.80
2023-02-17T18:14:56.383Z,5.82
2023-02-17T18:17:26.967Z,5.15
2023-02-17T18:19:55.886Z,5.97
2023-02-17T18:22:25.864Z,5.10
2023-02-17T18:24:54.899Z,5.30
2023-02-17T18:27:24.366Z,5.25
2023-02-17T18:29:56.979Z,4.85
2023-02-17T18:32:29.053Z,4.93
2023-02-17T18:34:58.952Z,5.75
2023-02-17T18:37:28.688Z,5.22
2023-02-17T18:39:57.339Z,6.82
2023-02-17T18:42:26.024Z,5.50
2023-02-17T18:44:57.284Z,5.82
2023-02-17T18:47:28.741Z,5.20
2023-02-17T18:49:59.991Z,5.13
2023-02-17T18:52:30.119Z,6.32
2023-02-17T18:54:59.980Z,6.20
2023-02-17T18:57:28.892Z,6.13
2023-02-17T19:00:09.507Z,4.95
2023-02-17T19:02:41.292Z,5.50
2023-02-17T19:05:13.802Z,5.65
2023-02-17T19:07:45.810Z,5.82
2023-02-17T19:10:16.917Z,5.25
2023-02-17T19:12:46.014Z,5.57
2023-02-17T19:15:17.617Z,5.40
2023-02-17T19:17:49.487Z,5.15
2023-02-17T19:20:18.703Z,6.00
2023-02-17T19:22:49.364Z,6.07
2023-02-17T19:25:19.292Z,5.82
2023-02-17T19:27:49.317Z,5.00
2023-02-17T19:30:18.457Z,5.35
2023-02-17T19:32:54.910Z,5.63
2023-02-17T19:35:24.463Z,5.53
2023-02-17T19:37:53.455Z,5.68
2023-02-17T19:40:25.432Z,6.72
2023-02-17T19:42:55.418Z,5.97
2023-02-17T19:45:24.917Z,5.43
2023-02-17T19:47:56.552Z,4.75
2023-02-17T19:50:25.757Z,5.45
2023-02-17T19:52:54.743Z,5.13
2023-02-17T19:55:24.730Z,4.95
2023-02-17T19:57:54.316Z,5.47
2023-02-17T20:00:24.136Z,5.13
2023-02-17T20:02:54.913Z,5.30
2023-02-17T20:05:24.373Z,4.82
2023-02-17T20:07:55.284Z,5.15
2023-02-17T20:10:25.773Z,6.70
2023-02-17T20:12:54.799Z,7.78
2023-02-17T20:15:24.515Z,6.32
2023-02-17T20:17:56.212Z,5.97
2023-02-17T20:20:25.580Z,6.35
2023-02-17T20:22:54.918Z,7.15
2023-02-17T20:25:24.160Z,8.90
2023-02-17T20:27:57.749Z,6.75
2023-02-17T20:30:26.871Z,7.43
2023-02-17T20:32:57.231Z,8.07
2023-02-17T20:35:26.847Z,7.75
2023-02-17T20:37:55.431Z,8.18
2023-02-17T20:40:24.475Z,6.82
2023-02-17T20:42:54.457Z,7.53
2023-02-17T20:45:25.749Z,6.70
2023-02-17T20:47:54.745Z,7.32
2023-02-17T20:50:26.518Z,8.52
2023-02-17T20:52:57.653Z,7.80
2023-02-17T20:55:27.751Z,8.07
2023-02-17T20:58:01.062Z,8.52
2023-02-17T21:00:30.636Z,8.60
2023-02-17T21:02:59.634Z,9.23
2023-02-17T21:05:30.000Z,10.35
2023-02-17T21:08:01.286Z,10.35
2023-02-17T21:10:32.631Z,10.65
2023-02-17T21:13:02.788Z,10.85
2023-02-17T21:15:32.933Z,11.57
2023-02-17T21:18:01.832Z,10.98
2023-02-17T21:20:33.178Z,12.20
2023-02-17T21:23:02.408Z,11.23
2023-02-17T21:25:52.281Z,12.23
2023-02-17T21:28:23.876Z,11.57
2023-02-17T21:30:52.841Z,12.52
2023-02-17T21:33:23.881Z,11.25
2023-02-17T21:35:58.816Z,11.43
2023-02-17T21:38:27.721Z,12.38
2023-02-17T21:40:57.369Z,14.93
2023-02-17T21:43:46.517Z,12.52
2023-02-17T21:46:16.541Z,12.75
2023-02-17T21:48:47.273Z,12.15
2023-02-17T21:54:09.417Z,12.00
2023-02-17T21:56:39.277Z,12.48
2023-02-17T21:59:11.829Z,11.73
2023-02-17T22:01:40.949Z,11.68
2023-02-17T22:04:10.852Z,13.45
2023-02-17T22:06:43.603Z,11.60
2023-02-17T22:09:18.996Z,11.48
2023-02-17T22:11:49.631Z,10.38
2023-02-17T22:14:25.249Z,9.75
2023-02-17T22:16:58.621Z,10.50
2023-02-17T22:19:38.362Z,9.75
2023-02-17T22:22:07.449Z,10.65
2023-02-17T22:24:40.639Z,10.07
2023-02-17T22:27:10.032Z,10.10
2023-02-17T22:29:40.585Z,9.18
2023-02-17T22:32:13.658Z,8.88
2023-02-17T22:34:43.251Z,9.25
2023-02-17T22:37:21.257Z,8.40
2023-02-17T22:39:56.057Z,8.32
2023-02-17T22:42:27.167Z,10.05
2023-02-17T22:44:56.059Z,7.97
2023-02-17T22:47:26.438Z,9.57
2023-02-17T22:49:55.426Z,10.20
2023-02-17T22:52:26.164Z,10.35
2023-02-17T22:54:57.056Z,8.77
2023-02-17T22:57:34.917Z,8.82
2023-02-17T23:00:09.024Z,7.53
2023-02-17T23:02:39.890Z,7.03
2023-02-17T23:05:12.157Z,7.47
2023-02-17T23:07:42.776Z,7.28
2023-02-17T23:10:14.105Z,7.65
2023-02-17T23:12:42.885Z,7.32
2023-02-17T23:15:14.873Z,7.10
2023-02-17T23:18:00.232Z,7.03
2023-02-17T23:20:34.135Z,7.22
2023-02-17T23:23:03.237Z,7.40
2023-02-17T23:25:34.714Z,9.02
2023-02-17T23:28:06.773Z,8.38
2023-02-17T23:30:37.494Z,10.52
2023-02-17T23:33:07.508Z,9.57
2023-02-17T23:35:41.475Z,12.05
2023-02-17T23:38:15.024Z,10.95
2023-02-17T23:40:51.012Z,11.27
2023-02-17T23:43:32.172Z,9.27
2023-02-17T23:46:04.317Z,10.57
2023-02-17T23:48:34.336Z,11.57
2023-02-17T23:51:08.036Z,12.00
2023-02-17T23:53:38.128Z,12.02
2023-02-17T23:56:33.247Z,12.98
2023-02-17T23:59:02.918Z,13.93
